Time;durP1;ratioP1;P1;durP2;ratioP2;P2;SDS_P1;SDS_P2;PMS_P1;PMS_P2;Temp;Humidity;BMP_temperature;BMP_pressure;BME280_temperature;BME280_humidity;BME280_pressure;Samples;Min_cycle;Max_cycle;Signal;HPM_P1;HPM_P2
2024/01/13 00:00:59;;;;;;;12.18;3.28;;;;;;;;;;5060531;28;20127;-81
2024/01/13 00:03:25;;;;;;;16.98;3.45;;;;;;;;;;5066782;28;20040;-81
2024/01/13 00:05:51;;;;;;;24.92;3.17;;;;;;;;;;5052420;28;20051;-78
2024/01/13 00:08:17;;;;;;;21.27;3.03;;;;;;;;;;5083433;28;20067;-81
2024/01/13 00:10:43;;;;;;;17.48;3.15;;;;;;;;;;5073129;28;20514;-80
2024/01/13 00:13:09;;;;;;;23.50;3.65;;;;;;;;;;5077679;28;20044;-82
2024/01/13 00:15:36;;;;;;;30.98;3.67;;;;;;;;;;5076326;28;20047;-79
2024/01/13 00:18:02;;;;;;;23.98;3.78;;;;;;;;;;5088999;28;20059;-79
2024/01/13 00:20:28;;;;;;;13.43;3.15;;;;;;;;;;5052348;28;20510;-81
2024/01/13 00:22:54;;;;;;;16.58;3.42;;;;;;;;;;5067812;28;20047;-81
2024/01/13 00:25:20;;;;;;;22.77;3.20;;;;;;;;;;5049317;28;20043;-81
2024/01/13 00:27:47;;;;;;;13.45;3.05;;;;;;;;;;5066007;28;20039;-81
2024/01/13 00:30:13;;;;;;;16.98;2.75;;;;;;;;;;5079758;28;20043;-82
2024/01/13 00:32:39;;;;;;;17.75;3.33;;;;;;;;;;5064892;28;20040;-81
2024/01/13 00:35:05;;;;;;;15.10;2.97;;;;;;;;;;5068136;28;20036;-81
2024/01/13 00:37:31;;;;;;;13.65;3.63;;;;;;;;;;5083704;28;20526;-80
2024/01/13 00:39:57;;;;;;;10.80;3.25;;;;;;;;;;5074741;28;20032;-81
2024/01/13 00:42:23;;;;;;;15.25;3.55;;;;;;;;;;5055880;28;20051;-81
2024/01/13 00:44:49;;;;;;;13.80;3.15;;;;;;;;;;5083349;28;20127;-80
2024/01/13 00:47:15;;;;;;;9.13;3.25;;;;;;;;;;5084995;28;20040;-81
2024/01/13 00:49:41;;;;;;;12.88;3.22;;;;;;;;;;5089161;28;20109;-80
2024/01/13 00:52:09;;;;;;;14.85;3.88;;;;;;;;;;5054122;28;20180;-81
2024/01/13 00:54:35;;;;;;;13.57;3.17;;;;;;;;;;5061810;28;20032;-78
2024/01/13 00:57:01;;;;;;;20.40;3.30;;;;;;;;;;5068383;28;20123;-79
2024/01/13 00:59:27;;;;;;;45.83;5.93;;;;;;;;;;5069131;28;20032;-78
2024/01/13 01:01:53;;;;;;;42.53;4.80;;;;;;;;;;5052414;28;20032;-77
2024/01/13 01:04:19;;;;;;;42.22;3.42;;;;;;;;;;5072485;28;20477;-78
2024/01/13 01:06:46;;;;;;;16.13;3.45;;;;;;;;;;5069815;28;20070;-77
2024/01/13 01:09:12;;;;;;;12.55;3.42;;;;;;;;;;5058093;28;20653;-80
2024/01/13 01:11:38;;;;;;;9.32;2.83;;;;;;;;;;5070405;28;20119;-77
2024/01/13 01:14:04;;;;;;;9.85;3.03;;;;;;;;;;5093570;27;20083;-78
2024/01/13 01:16:30;;;;;;;4.30;2.22;;;;;;;;;;5073423;28;20562;-77
2024/01/13 01:18:56;;;;;;;7.32;2.70;;;;;;;;;;5071812;28;20032;-77
2024/01/13 01:21:22;;;;;;;4.75;2.63;;;;;;;;;;5086164;28;20073;-79
2024/01/13 01:23:48;;;;;;;5.90;2.83;;;;;;;;;;5055434;28;20035;-80
2024/01/13 01:26:14;;;;;;;6.88;2.70;;;;;;;;;;5082513;28;20143;-79
2024/01/13 01:28:40;;;;;;;7.53;2.65;;;;;;;;;;5084044;28;20090;-77
2024/01/13 01:31:06;;;;;;;14.80;4.68;;;;;;;;;;5083725;28;20048;-78
2024/01/13 01:33:32;;;;;;;6.70;3.22;;;;;;;;;;5083449;28;20519;-77
2024/01/13 01:35:58;;;;;;;8.90;3.17;;;;;;;;;;5067309;28;20039;-79
2024/01/13 01:38:24;;;;;;;7.43;3.20;;;;;;;;;;5066797;28;20181;-78
2024/01/13 01:40:54;;;;;;;9.90;3.40;;;;;;;;;;5070730;28;20047;-78
2024/01/13 01:43:21;;;;;;;14.63;4.00;;;;;;;;;;5069775;28;20078;-77
2024/01/13 01:45:54;;;;;;;15.35;3.65;;;;;;;;;;5087843;28;20499;-78
2024/01/13 01:48:25;;;;;;;10.98;4.65;;;;;;;;;;5083725;28;20815;-78
2024/01/13 01:50:51;;;;;;;8.57;3.50;;;;;;;;;;5068343;28;20101;-77
2024/01/13 01:53:17;;;;;;;9.23;3.22;;;;;;;;;;5068701;28;20032;-77
2024/01/13 01:55:43;;;;;;;11.65;3.78;;;;;;;;;;5071335;28;20028;-77
2024/01/13 01:58:10;;;;;;;11.05;3.35;;;;;;;;;;5067825;28;20041;-78
2024/01/13 02:00:36;;;;;;;18.80;3.95;;;;;;;;;;5052213;28;20063;-77
2024/01/13 02:03:02;;;;;;;15.48;3.47;;;;;;;;;;5080786;28;20036;-80
2024/01/13 02:05:29;;;;;;;7.03;2.90;;;;;;;;;;5084136;28;20498;-79
2024/01/13 02:07:56;;;;;;;9.52;3.30;;;;;;;;;;5053213;28;20064;-81
2024/01/13 02:10:22;;;;;;;6.50;2.83;;;;;;;;;;5078347;28;20036;-82
2024/01/13 02:12:48;;;;;;;11.45;3.15;;;;;;;;;;5068955;28;20558;-81
2024/01/13 02:15:14;;;;;;;7.65;2.47;;;;;;;;;;5065794;28;20044;-81
2024/01/13 02:17:41;;;;;;;13.55;3.55;;;;;;;;;;5081114;28;20043;-80
2024/01/13 02:20:07;;;;;;;12.57;3.20;;;;;;;;;;5069826;28;20406;-81
2024/01/13 02:22:33;;;;;;;13.57;3.38;;;;;;;;;;5086831;28;20449;-79
2024/01/13 02:25:07;;;;;;;10.57;3.80;;;;;;;;;;5085774;28;20040;-81
2024/01/13 02:27:33;;;;;;;8.80;3.13;;;;;;;;;;5081640;28;20048;-82
2024/01/13 02:29:59;;;;;;;9.20;3.17;;;;;;;;;;5080089;28;20461;-81
2024/01/13 02:32:25;;;;;;;6.05;2.45;;;;;;;;;;5079581;28;20043;-81
2024/01/13 02:34:51;;;;;;;8.88;2.67;;;;;;;;;;5081466;28;20051;-80
2024/01/13 02:37:17;;;;;;;9.60;3.08;;;;;;;;;;5077599;28;20040;-81
2024/01/13 02:39:46;;;;;;;10.68;2.40;;;;;;;;;;5067543;28;20131;-81
2024/01/13 02:42:12;;;;;;;8.70;2.35;;;;;;;;;;5051718;28;20048;-79
2024/01/13 02:44:38;;;;;;;4.40;2.53;;;;;;;;;;5064297;28;20039;-82
2024/01/13 02:47:04;;;;;;;9.95;2.40;;;;;;;;;;5083966;28;20035;-81
2024/01/13 02:49:30;;;;;;;11.48;2.90;;;;;;;;;;5061886;28;20090;-81
2024/01/13 02:51:56;;;;;;;9.65;2.55;;;;;;;;;;5059842;28;20167;-79
2024/01/13 02:54:22;;;;;;;14.05;2.83;;;;;;;;;;5076828;28;20036;-81
2024/01/13 02:56:48;;;;;;;10.38;2.45;;;;;;;;;;5083666;28;20028;-81
2024/01/13 02:59:14;;;;;;;9.35;2.50;;;;;;;;;;5051745;28;20072;-81
2024/01/13 03:01:40;;;;;;;7.18;2.40;;;;;;;;;;5063713;28;20795;-81
2024/01/13 03:04:06;;;;;;;14.07;3.08;;;;;;;;;;5066877;28;20521;-81
2024/01/13 03:06:33;;;;;;;6.18;2.47;;;;;;;;;;5055987;28;20432;-81
2024/01/13 03:08:59;;;;;;;10.25;2.90;;;;;;;;;;5063697;28;20060;-82
2024/01/13 03:11:25;;;;;;;7.85;2.85;;;;;;;;;;5052532;28;20530;-78
2024/01/13 03:13:51;;;;;;;11.02;3.10;;;;;;;;;;5062454;28;20047;-79
2024/01/13 03:16:17;;;;;;;12.48;2.90;;;;;;;;;;5068055;28;20080;-80
2024/01/13 03:18:43;;;;;;;11.18;2.97;;;;;;;;;;5056897;28;20036;-82
2024/01/13 03:21:10;;;;;;;5.22;2.78;;;;;;;;;;5079473;28;20123;-82
2024/01/13 03:23:36;;;;;;;9.75;3.08;;;;;;;;;;5065214;28;20033;-81
2024/01/13 03:26:02;;;;;;;8.10;2.83;;;;;;;;;;5078759;28;20127;-81
2024/01/13 03:28:29;;;;;;;8.73;2.35;;;;;;;;;;5064637;28;20553;-79
2024/01/13 03:30:55;;;;;;;7.50;2.60;;;;;;;;;;5077481;28;20044;-81
2024/01/13 03:33:21;;;;;;;5.47;1.98;;;;;;;;;;5087596;28;20230;-81
2024/01/13 03:35:47;;;;;;;8.85;2.30;;;;;;;;;;5067206;28;20067;-81
2024/01/13 03:38:13;;;;;;;3.63;2.30;;;;;;;;;;5068962;28;20089;-80
2024/01/13 03:40:39;;;;;;;14.88;2.45;;;;;;;;;;5054603;28;20040;-81
2024/01/13 03:43:05;;;;;;;6.95;1.95;;;;;;;;;;5083487;28;20086;-79
2024/01/13 03:45:32;;;;;;;10.65;2.92;;;;;;;;;;5086825;28;20036;-81
2024/01/13 03:47:58;;;;;;;8.25;2.45;;;;;;;;;;5080628;28;20123;-82
2024/01/13 03:50:25;;;;;;;8.15;2.50;;;;;;;;;;5083461;28;20055;-81
2024/01/13 03:52:51;;;;;;;5.63;2.47;;;;;;;;;;5091134;28;20043;-81
2024/01/13 03:55:17;;;;;;;5.80;2.00;;;;;;;;;;5069345;28;20028;-82
2024/01/13 03:57:44;;;;;;;6.80;1.95;;;;;;;;;;5065007;28;20036;-81
2024/01/13 04:00:10;;;;;;;7.88;2.45;;;;;;;;;;5085454;28;20040;-81
2024/01/13 04:02:36;;;;;;;5.75;2.13;;;;;;;;;;5069009;28;20067;-79
2024/01/13 04:05:02;;;;;;;6.95;2.10;;;;;;;;;;5065509;28;20128;-81
2024/01/13 04:07:28;;;;;;;5.75;2.08;;;;;;;;;;5056166;28;20036;-81
2024/01/13 04:09:54;;;;;;;8.75;2.10;;;;;;;;;;5083690;28;20052;-82
2024/01/13 04:12:21;;;;;;;4.60;1.85;;;;;;;;;;5082237;28;20101;-79
2024/01/13 04:14:48;;;;;;;9.80;1.90;;;;;;;;;;5079091;28;20031;-82
2024/01/13 04:17:14;;;;;;;9.07;2.20;;;;;;;;;;5084858;28;20491;-82
2024/01/13 04:19:40;;;;;;;4.90;1.73;;;;;;;;;;5072369;28;20028;-81
2024/01/13 04:22:06;;;;;;;6.18;1.70;;;;;;;;;;5048199;28;20053;-82
2024/01/13 04:24:32;;;;;;;4.60;1.60;;;;;;;;;;5084960;28;20047;-81
2024/01/13 04:26:58;;;;;;;7.55;1.70;;;;;;;;;;5088738;28;20475;-83
2024/01/13 04:29:24;;;;;;;4.30;1.65;;;;;;;;;;5081435;28;20548;-83
2024/01/13 04:31:50;;;;;;;5.47;2.70;;;;;;;;;;5065844;28;20653;-80
2024/01/13 04:34:16;;;;;;;6.20;1.73;;;;;;;;;;5066371;28;20101;-80
2024/01/13 04:36:42;;;;;;;6.53;1.95;;;;;;;;;;5082248;28;20078;-82
2024/01/13 04:39:08;;;;;;;4.60;1.45;;;;;;;;;;5079857;28;20047;-82
2024/01/13 04:41:35;;;;;;;11.07;2.15;;;;;;;;;;5053598;28;20043;-81
2024/01/13 04:44:03;;;;;;;3.67;2.03;;;;;;;;;;5047571;28;20059;-81
2024/01/13 04:46:29;;;;;;;7.30;2.28;;;;;;;;;;5061501;28;20078;-81
2024/01/13 04:48:55;;;;;;;4.60;2.42;;;;;;;;;;5067479;28;20169;-82
2024/01/13 04:51:21;;;;;;;6.68;2.80;;;;;;;;;;5077228;28;20047;-80
2024/01/13 04:53:48;;;;;;;7.38;2.28;;;;;;;;;;5070336;28;20044;-81
2024/01/13 04:56:15;;;;;;;9.30;2.63;;;;;;;;;;5067511;28;20028;-81
2024/01/13 04:58:42;;;;;;;7.53;2.60;;;;;;;;;;5066981;28;20056;-82
2024/01/13 05:01:08;;;;;;;11.18;2.63;;;;;;;;;;5081221;28;20073;-82
2024/01/13 05:03:37;;;;;;;6.95;2.65;;;;;;;;;;5070270;28;20380;-82
2024/01/13 05:06:03;;;;;;;5.97;2.30;;;;;;;;;;5058681;28;20040;-81
2024/01/13 05:08:31;;;;;;;13.15;2.40;;;;;;;;;;5072305;28;20063;-82
2024/01/13 05:10:57;;;;;;;7.38;2.25;;;;;;;;;;5054824;28;20395;-82
2024/01/13 05:13:23;;;;;;;9.52;3.30;;;;;;;;;;5055582;28;20043;-83
2024/01/13 05:15:49;;;;;;;7.57;2.83;;;;;;;;;;5074599;28;20036;-86
2024/01/13 05:18:15;;;;;;;4.63;2.00;;;;;;;;;;5077715;28;20045;-86
2024/01/13 05:20:41;;;;;;;4.78;1.88;;;;;;;;;;5079588;28;20035;-85
2024/01/13 05:23:07;;;;;;;7.90;1.95;;;;;;;;;;5067182;28;20044;-86
2024/01/13 05:25:34;;;;;;;2.67;2.03;;;;;;;;;;5058668;28;20029;-85
2024/01/13 05:28:00;;;;;;;11.15;2.20;;;;;;;;;;5072478;28;20126;-85
2024/01/13 05:30:28;;;;;;;7.53;2.13;;;;;;;;;;5105870;28;20509;-85
2024/01/13 05:32:54;;;;;;;5.97;2.13;;;;;;;;;;5068275;28;20079;-86
2024/01/13 05:35:20;;;;;;;7.78;2.30;;;;;;;;;;5070850;28;20036;-82
2024/01/13 05:37:47;;;;;;;7.20;2.85;;;;;;;;;;5084718;28;20047;-87
2024/01/13 05:40:13;;;;;;;8.35;2.67;;;;;;;;;;5069923;28;20111;-81
2024/01/13 05:42:39;;;;;;;9.27;2.70;;;;;;;;;;5085540;28;20391;-83
2024/01/13 05:45:06;;;;;;;10.55;3.13;;;;;;;;;;5079558;28;20036;-82
2024/01/13 05:47:32;;;;;;;5.72;3.08;;;;;;;;;;5050990;28;20507;-84
2024/01/13 05:49:58;;;;;;;9.80;3.53;;;;;;;;;;5068138;28;20040;-82
2024/01/13 05:52:24;;;;;;;9.95;3.60;;;;;;;;;;5068518;28;20135;-81
2024/01/13 05:54:50;;;;;;;12.85;3.20;;;;;;;;;;5074043;28;21166;-82
2024/01/13 05:57:17;;;;;;;14.40;4.28;;;;;;;;;;5071774;28;20495;-81
2024/01/13 05:59:43;;;;;;;7.22;2.38;;;;;;;;;;5068015;28;20040;-81
2024/01/13 06:02:09;;;;;;;10.63;3.00;;;;;;;;;;5053585;28;20036;-82
2024/01/13 06:04:35;;;;;;;9.23;2.28;;;;;;;;;;5069373;28;20114;-83
2024/01/13 06:07:04;;;;;;;7.88;2.50;;;;;;;;;;5092652;28;20043;-81
2024/01/13 06:09:31;;;;;;;10.05;2.50;;;;;;;;;;5073511;28;20400;-81
2024/01/13 06:11:57;;;;;;;4.75;2.30;;;;;;;;;;5093218;28;20078;-82
2024/01/13 06:14:23;;;;;;;7.80;2.45;;;;;;;;;;5069278;28;20091;-81
2024/01/13 06:16:49;;;;;;;9.93;1.98;;;;;;;;;;5096185;28;20036;-79
2024/01/13 06:19:15;;;;;;;6.22;2.15;;;;;;;;;;5065136;28;20036;-82
2024/01/13 06:21:49;;;;;;;5.13;2.08;;;;;;;;;;5060229;28;20036;-83
2024/01/13 06:24:15;;;;;;;3.83;2.05;;;;;;;;;;5071713;28;20051;-82
2024/01/13 06:26:42;;;;;;;4.07;2.20;;;;;;;;;;5088226;28;20035;-82
2024/01/13 06:29:09;;;;;;;6.25;2.20;;;;;;;;;;5088332;28;20553;-81
2024/01/13 06:31:35;;;;;;;4.22;1.67;;;;;;;;;;5091839;28;20040;-81
2024/01/13 06:34:01;;;;;;;7.85;2.15;;;;;;;;;;5082512;28;20032;-81
2024/01/13 06:36:27;;;;;;;9.45;2.58;;;;;;;;;;5047844;28;20036;-82
2024/01/13 06:38:54;;;;;;;2.85;2.22;;;;;;;;;;5068046;28;20037;-82
2024/01/13 06:41:20;;;;;;;7.03;2.75;;;;;;;;;;5088913;28;20038;-81
2024/01/13 06:43:46;;;;;;;8.07;2.67;;;;;;;;;;5083867;28;20127;-82
2024/01/13 06:46:12;;;;;;;11.30;2.38;;;;;;;;;;5088570;28;20416;-80
2024/01/13 06:48:38;;;;;;;9.15;2.03;;;;;;;;;;5076809;28;20151;-82
2024/01/13 06:51:05;;;;;;;14.10;4.15;;;;;;;;;;5067513;28;20048;-82
2024/01/13 06:53:31;;;;;;;12.90;2.95;;;;;;;;;;5072228;28;20032;-81
2024/01/13 06:55:57;;;;;;;4.38;2.58;;;;;;;;;;5074781;28;20063;-83
2024/01/13 06:58:23;;;;;;;3.08;2.28;;;;;;;;;;5070511;28;20799;-84
2024/01/13 07:00:49;;;;;;;8.68;1.63;;;;;;;;;;5085429;28;20093;-81
2024/01/13 07:03:15;;;;;;;6.20;2.53;;;;;;;;;;5054297;28;20131;-82
2024/01/13 07:05:41;;;;;;;9.30;3.15;;;;;;;;;;5087849;28;20082;-82
2024/01/13 07:08:08;;;;;;;12.07;2.70;;;;;;;;;;5087609;28;20133;-82
2024/01/13 07:10:34;;;;;;;8.25;2.83;;;;;;;;;;5068254;28;20066;-82
2024/01/13 07:13:00;;;;;;;9.50;2.95;;;;;;;;;;5069789;28;20054;-82
2024/01/13 07:15:26;;;;;;;9.02;3.05;;;;;;;;;;5084392;28;20488;-83
2024/01/13 07:17:53;;;;;;;9.27;2.60;;;;;;;;;;5061027;28;20048;-81
2024/01/13 07:20:19;;;;;;;8.63;2.60;;;;;;;;;;5070576;28;20088;-82
2024/01/13 07:22:45;;;;;;;8.70;3.40;;;;;;;;;;5064778;28;20048;-81
2024/01/13 07:25:11;;;;;;;10.90;3.20;;;;;;;;;;5070741;28;20038;-83
2024/01/13 07:27:37;;;;;;;11.35;3.47;;;;;;;;;;5052199;28;20043;-82
2024/01/13 07:30:06;;;;;;;9.73;3.40;;;;;;;;;;5064143;28;20040;-84
2024/01/13 07:32:32;;;;;;;7.78;3.47;;;;;;;;;;5080572;28;20067;-81
2024/01/13 07:35:01;;;;;;;7.85;4.07;;;;;;;;;;5083642;28;20123;-83
2024/01/13 07:37:29;;;;;;;5.63;2.90;;;;;;;;;;5066009;28;20036;-82
2024/01/13 07:39:56;;;;;;;7.75;2.95;;;;;;;;;;5082454;28;20124;-82
2024/01/13 07:42:22;;;;;;;24.90;4.30;;;;;;;;;;5082914;28;20123;-81
2024/01/13 07:44:48;;;;;;;4.53;2.42;;;;;;;;;;5086721;28;20039;-83
2024/01/13 07:47:14;;;;;;;5.78;2.78;;;;;;;;;;5069015;28;20036;-79
2024/01/13 07:49:40;;;;;;;5.32;3.25;;;;;;;;;;5070558;28;20045;-80
2024/01/13 07:52:07;;;;;;;6.22;3.63;;;;;;;;;;5080952;28;20125;-80
2024/01/13 07:54:33;;;;;;;8.82;4.15;;;;;;;;;;5077288;28;20044;-85
2024/01/13 07:56:59;;;;;;;7.57;4.40;;;;;;;;;;5061490;28;20036;-87
2024/01/13 07:59:25;;;;;;;10.13;4.18;;;;;;;;;;5091070;28;20044;-86
2024/01/13 08:01:51;;;;;;;12.02;5.20;;;;;;;;;;5067718;28;20398;-87
2024/01/13 08:04:17;;;;;;;19.45;6.13;;;;;;;;;;5071448;28;20044;-87
2024/01/13 08:06:45;;;;;;;18.77;5.78;;;;;;;;;;5076827;28;20579;-87
2024/01/13 08:09:11;;;;;;;17.95;8.30;;;;;;;;;;5068413;28;20061;-86
2024/01/13 08:11:37;;;;;;;23.33;9.88;;;;;;;;;;5073795;28;20038;-86
2024/01/13 08:14:03;;;;;;;32.95;11.77;;;;;;;;;;5075482;28;20491;-84
2024/01/13 08:16:30;;;;;;;34.08;13.43;;;;;;;;;;5090169;28;20040;-86
2024/01/13 08:18:57;;;;;;;38.17;14.80;;;;;;;;;;5085804;28;20032;-87
2024/01/13 08:21:23;;;;;;;39.30;16.05;;;;;;;;;;5087498;28;20085;-87
2024/01/13 08:23:49;;;;;;;51.55;18.05;;;;;;;;;;5066681;28;20184;-83
2024/01/13 08:26:15;;;;;;;51.20;20.27;;;;;;;;;;5070166;28;20055;-86
2024/01/13 08:28:41;;;;;;;51.90;21.08;;;;;;;;;;5068369;28;20580;-85
2024/01/13 08:31:09;;;;;;;59.08;22.17;;;;;;;;;;5072081;28;20518;-86
2024/01/13 08:33:35;;;;;;;56.70;23.58;;;;;;;;;;5071018;28;20044;-86
2024/01/13 08:36:01;;;;;;;71.65;26.00;;;;;;;;;;5069750;28;20391;-86
2024/01/13 08:38:27;;;;;;;75.50;27.33;;;;;;;;;;5072656;28;20032;-85
2024/01/13 08:40:53;;;;;;;82.53;30.58;;;;;;;;;;5073522;28;20174;-85
2024/01/13 08:43:19;;;;;;;74.93;30.73;;;;;;;;;;5067092;28;20035;-86
2024/01/13 08:45:45;;;;;;;84.80;32.03;;;;;;;;;;5065258;28;20040;-86
2024/01/13 08:48:11;;;;;;;87.20;35.45;;;;;;;;;;5084813;28;20492;-86
2024/01/13 08:50:38;;;;;;;95.38;37.38;;;;;;;;;;5074087;28;20052;-86
2024/01/13 08:53:05;;;;;;;94.22;38.00;;;;;;;;;;5071979;28;20044;-87
2024/01/13 08:55:31;;;;;;;101.63;39.92;;;;;;;;;;5070562;28;20055;-85
2024/01/13 08:57:57;;;;;;;104.95;42.65;;;;;;;;;;5081707;28;20076;-86
2024/01/13 09:00:24;;;;;;;100.18;39.10;;;;;;;;;;5059072;28;20033;-85
2024/01/13 09:02:50;;;;;;;103.68;44.08;;;;;;;;;;5080868;28;20072;-86
2024/01/13 09:05:16;;;;;;;104.93;42.08;;;;;;;;;;5070615;28;20510;-86
2024/01/13 09:07:42;;;;;;;105.57;41.92;;;;;;;;;;5071569;28;20025;-86
2024/01/13 09:10:08;;;;;;;104.32;45.00;;;;;;;;;;5084405;28;20060;-86
2024/01/13 09:12:34;;;;;;;102.18;42.15;;;;;;;;;;5086955;28;20122;-87
2024/01/13 09:15:00;;;;;;;107.30;44.83;;;;;;;;;;5070181;28;20042;-83
2024/01/13 09:17:26;;;;;;;109.53;47.05;;;;;;;;;;5076253;28;20403;-81
2024/01/13 09:19:53;;;;;;;108.22;45.88;;;;;;;;;;5091440;28;20044;-87
2024/01/13 09:22:19;;;;;;;110.15;46.60;;;;;;;;;;5047314;28;20055;-87
2024/01/13 09:24:45;;;;;;;119.20;51.30;;;;;;;;;;5070537;28;20036;-85
2024/01/13 09:27:12;;;;;;;116.30;49.05;;;;;;;;;;5086663;28;20032;-87
2024/01/13 09:29:39;;;;;;;105.90;47.22;;;;;;;;;;5087826;28;20491;-87
2024/01/13 09:32:05;;;;;;;99.22;44.67;;;;;;;;;;5072728;28;20043;-87
2024/01/13 09:34:31;;;;;;;101.57;41.60;;;;;;;;;;5069945;28;20044;-87
2024/01/13 09:36:58;;;;;;;109.60;44.33;;;;;;;;;;5066289;28;20044;-84
2024/01/13 09:39:24;;;;;;;98.68;45.28;;;;;;;;;;5065110;28;20043;-85
2024/01/13 09:41:50;;;;;;;107.40;46.65;;;;;;;;;;5057058;28;20032;-84
2024/01/13 09:44:21;;;;;;;98.57;44.65;;;;;;;;;;5043224;28;20040;-79
2024/01/13 09:46:47;;;;;;;97.90;41.47;;;;;;;;;;5067276;28;20475;-84
2024/01/13 09:49:14;;;;;;;91.07;40.08;;;;;;;;;;5072171;28;20040;-83
2024/01/13 09:51:40;;;;;;;88.93;41.75;;;;;;;;;;5054344;28;20036;-82
2024/01/13 09:54:12;;;;;;;78.85;36.45;;;;;;;;;;5057093;28;20048;-85
2024/01/13 09:56:47;;;;;;;90.32;40.17;;;;;;;;;;5058669;28;20033;-79
2024/01/13 09:59:14;;;;;;;95.22;41.90;;;;;;;;;;5077591;28;20082;-84
2024/01/13 10:01:40;;;;;;;83.93;41.10;;;;;;;;;;5057805;28;20036;-84
2024/01/13 10:04:07;;;;;;;83.30;39.25;;;;;;;;;;5085744;28;20048;-85
2024/01/13 10:06:34;;;;;;;91.00;41.88;;;;;;;;;;5082530;28;20097;-85
2024/01/13 10:09:00;;;;;;;87.93;40.53;;;;;;;;;;5074244;28;20123;-84
2024/01/13 10:11:28;;;;;;;76.28;36.22;;;;;;;;;;5080069;28;20051;-85
2024/01/13 10:14:01;;;;;;;78.20;35.85;;;;;;;;;;5067595;28;20032;-78
2024/01/13 10:16:31;;;;;;;70.87;35.47;;;;;;;;;;5071233;28;20035;-76
2024/01/13 10:19:04;;;;;;;71.30;34.55;;;;;;;;;;5090663;28;20039;-77
2024/01/13 10:21:30;;;;;;;75.40;35.58;;;;;;;;;;5088030;28;20036;-78
2024/01/13 10:23:57;;;;;;;70.82;33.40;;;;;;;;;;5073819;28;20036;-77
2024/01/13 10:26:27;;;;;;;75.20;35.65;;;;;;;;;;5067337;28;20072;-77
2024/01/13 10:28:53;;;;;;;78.07;35.05;;;;;;;;;;5082938;28;20047;-77
2024/01/13 10:31:19;;;;;;;55.80;24.73;;;;;;;;;;5073708;28;20536;-78
2024/01/13 10:33:50;;;;;;;64.97;32.53;;;;;;;;;;5057025;28;20040;-77
2024/01/13 10:36:17;;;;;;;56.50;29.90;;;;;;;;;;5080528;28;20157;-78
2024/01/13 10:38:43;;;;;;;53.58;28.92;;;;;;;;;;5072574;28;20036;-77
2024/01/13 10:41:10;;;;;;;59.13;29.02;;;;;;;;;;5086500;28;20124;-78
2024/01/13 10:43:38;;;;;;;63.50;27.48;;;;;;;;;;5055640;28;20048;-77
2024/01/13 10:46:08;;;;;;;54.63;27.48;;;;;;;;;;5072430;28;20123;-78
2024/01/13 10:48:42;;;;;;;48.47;22.02;;;;;;;;;;5072330;28;20131;-78
2024/01/13 10:51:14;;;;;;;53.72;26.40;;;;;;;;;;5089226;28;20385;-79
2024/01/13 10:53:42;;;;;;;62.30;26.15;;;;;;;;;;5076704;28;20127;-78
2024/01/13 10:56:09;;;;;;;58.78;24.58;;;;;;;;;;5073983;28;20124;-78
2024/01/13 10:58:35;;;;;;;52.47;22.65;;;;;;;;;;5088434;28;20043;-77
2024/01/13 11:01:02;;;;;;;38.60;18.80;;;;;;;;;;5072112;28;20044;-77
2024/01/13 11:03:31;;;;;;;49.80;20.00;;;;;;;;;;5083660;28;20048;-77
2024/01/13 11:05:57;;;;;;;39.53;18.10;;;;;;;;;;5067948;28;20109;-75
2024/01/13 11:08:23;;;;;;;42.10;18.55;;;;;;;;;;5072126;28;20036;-77
2024/01/13 11:10:51;;;;;;;36.03;16.90;;;;;;;;;;5070973;28;20059;-78
2024/01/13 11:13:22;;;;;;;37.25;17.35;;;;;;;;;;5070685;28;20040;-81
2024/01/13 11:16:15;;;;;;;42.38;16.70;;;;;;;;;;5086785;28;20085;-86
2024/01/13 11:18:46;;;;;;;29.27;14.70;;;;;;;;;;5070135;28;20040;-81
2024/01/13 11:21:12;;;;;;;45.50;16.33;;;;;;;;;;5060378;28;20097;-81
2024/01/13 11:23:40;;;;;;;26.80;10.30;;;;;;;;;;5071091;28;20066;-81
2024/01/13 11:26:07;;;;;;;32.80;14.30;;;;;;;;;;5074170;28;20051;-84
2024/01/13 11:28:44;;;;;;;35.47;13.32;;;;;;;;;;5088390;28;20036;-86
2024/01/13 11:31:42;;;;;;;34.08;12.65;;;;;;;;;;5087600;28;20039;-86
2024/01/13 11:34:12;;;;;;;32.17;13.05;;;;;;;;;;5027593;28;20056;-86
2024/01/13 11:36:44;;;;;;;30.40;12.82;;;;;;;;;;5059484;28;20040;-85
2024/01/13 11:39:10;;;;;;;24.80;10.02;;;;;;;;;;5070454;28;20040;-84
2024/01/13 11:41:55;;;;;;;26.92;11.13;;;;;;;;;;5089249;28;20024;-84
2024/01/13 11:44:21;;;;;;;26.40;8.90;;;;;;;;;;5084664;28;20089;-85
2024/01/13 11:47:07;;;;;;;14.82;6.53;;;;;;;;;;5089908;28;20047;-86
2024/01/13 11:49:34;;;;;;;16.80;6.15;;;;;;;;;;5088340;28;20036;-85
2024/01/13 11:52:01;;;;;;;18.20;7.38;;;;;;;;;;5089162;28;20617;-86
2024/01/13 11:54:28;;;;;;;12.27;5.70;;;;;;;;;;5085103;28;20040;-86
2024/01/13 11:56:54;;;;;;;15.48;5.32;;;;;;;;;;5063879;28;20041;-86
2024/01/13 11:59:21;;;;;;;16.02;5.32;;;;;;;;;;5066237;28;20522;-83
2024/01/13 12:01:48;;;;;;;13.48;4.70;;;;;;;;;;5080814;28;20033;-84
2024/01/13 12:04:14;;;;;;;13.65;4.70;;;;;;;;;;5081166;28;20040;-85
2024/01/13 12:06:43;;;;;;;20.05;5.72;;;;;;;;;;5064909;28;20032;-84
2024/01/13 12:09:09;;;;;;;8.65;3.35;;;;;;;;;;5076164;28;20052;-84
2024/01/13 12:11:37;;;;;;;16.63;4.47;;;;;;;;;;5051265;28;20052;-85
2024/01/13 12:14:03;;;;;;;11.95;5.25;;;;;;;;;;5087084;28;20040;-82
2024/01/13 12:16:30;;;;;;;11.55;4.90;;;;;;;;;;5059858;28;20040;-83
2024/01/13 12:18:56;;;;;;;15.18;3.70;;;;;;;;;;5067282;28;20089;-83
2024/01/13 12:21:23;;;;;;;10.15;3.80;;;;;;;;;;5061127;28;20058;-83
2024/01/13 12:23:49;;;;;;;15.77;3.70;;;;;;;;;;5048103;28;20123;-83
2024/01/13 12:26:15;;;;;;;13.48;4.03;;;;;;;;;;5069346;28;20063;-82
2024/01/13 12:28:41;;;;;;;16.80;3.83;;;;;;;;;;5062939;28;20068;-84
2024/01/13 12:31:12;;;;;;;12.82;3.53;;;;;;;;;;5084635;28;20111;-83
2024/01/13 12:33:38;;;;;;;11.15;3.92;;;;;;;;;;5056900;28;20052;-83
2024/01/13 12:36:04;;;;;;;10.02;4.07;;;;;;;;;;5070130;28;20472;-79
2024/01/13 12:38:31;;;;;;;7.50;2.92;;;;;;;;;;5081110;28;20029;-80
2024/01/13 12:40:57;;;;;;;14.93;3.03;;;;;;;;;;5068829;28;20033;-79
2024/01/13 12:43:24;;;;;;;11.52;3.05;;;;;;;;;;5080099;28;20048;-81
2024/01/13 12:45:51;;;;;;;6.47;2.58;;;;;;;;;;5071020;28;20036;-79
2024/01/13 12:48:17;;;;;;;13.93;3.22;;;;;;;;;;5087958;28;20044;-83
2024/01/13 12:50:43;;;;;;;15.00;3.33;;;;;;;;;;5096490;28;20140;-80
2024/01/13 12:53:10;;;;;;;16.33;3.80;;;;;;;;;;5071131;28;20494;-81
2024/01/13 12:55:36;;;;;;;18.20;3.97;;;;;;;;;;5090123;28;20119;-80
2024/01/13 12:58:02;;;;;;;6.97;3.20;;;;;;;;;;5095006;28;20031;-80
2024/01/13 13:00:29;;;;;;;12.13;3.53;;;;;;;;;;5072877;28;20067;-79
2024/01/13 13:02:58;;;;;;;18.88;3.70;;;;;;;;;;5083137;28;20043;-79
2024/01/13 13:05:25;;;;;;;10.60;3.67;;;;;;;;;;5084233;28;20052;-79
2024/01/13 13:07:52;;;;;;;19.75;4.70;;;;;;;;;;5071408;28;20043;-80
2024/01/13 13:10:21;;;;;;;15.10;3.35;;;;;;;;;;5085371;28;20513;-79
2024/01/13 13:12:47;;;;;;;17.13;4.47;;;;;;;;;;5087019;28;20044;-79
2024/01/13 13:15:14;;;;;;;17.00;3.65;;;;;;;;;;5082862;28;20475;-79
2024/01/13 13:17:40;;;;;;;18.73;2.90;;;;;;;;;;5058779;28;20033;-80
2024/01/13 13:20:07;;;;;;;13.10;2.80;;;;;;;;;;5069981;28;20491;-75
2024/01/13 13:22:37;;;;;;;16.17;3.47;;;;;;;;;;5078930;28;20032;-73
2024/01/13 13:25:07;;;;;;;13.40;2.60;;;;;;;;;;5090428;28;20093;-77
2024/01/13 13:27:36;;;;;;;17.23;2.55;;;;;;;;;;5063131;28;20054;-75
2024/01/13 13:30:04;;;;;;;16.90;2.80;;;;;;;;;;5089926;28;20036;-74
2024/01/13 13:32:31;;;;;;;13.57;3.22;;;;;;;;;;5048978;28;20047;-74
2024/01/13 13:34:57;;;;;;;14.90;3.97;;;;;;;;;;5081462;28;20392;-74
2024/01/13 13:37:24;;;;;;;18.45;3.28;;;;;;;;;;5085716;28;20036;-73
2024/01/13 13:39:50;;;;;;;12.77;2.17;;;;;;;;;;5067292;28;20078;-74
2024/01/13 13:42:16;;;;;;;20.75;2.78;;;;;;;;;;5070375;28;20557;-73
2024/01/13 13:44:45;;;;;;;15.85;3.47;;;;;;;;;;5053728;28;20171;-72
2024/01/13 13:47:11;;;;;;;33.85;14.65;;;;;;;;;;5083431;28;20104;-74
2024/01/13 13:49:37;;;;;;;29.15;16.60;;;;;;;;;;5063019;28;20162;-72
2024/01/13 13:52:04;;;;;;;30.40;18.77;;;;;;;;;;5080205;28;20041;-73
2024/01/13 13:54:30;;;;;;;23.88;11.55;;;;;;;;;;5061942;28;20040;-77
2024/01/13 13:56:58;;;;;;;30.92;6.50;;;;;;;;;;5051459;28;20033;-76
2024/01/13 13:59:24;;;;;;;17.50;3.63;;;;;;;;;;5076904;28;20045;-73
2024/01/13 14:01:50;;;;;;;16.65;2.35;;;;;;;;;;5094481;27;20036;-73
2024/01/13 14:04:16;;;;;;;18.90;2.90;;;;;;;;;;5081409;28;20063;-74
2024/01/13 14:06:42;;;;;;;22.73;3.05;;;;;;;;;;5054425;28;20041;-72
2024/01/13 14:09:08;;;;;;;23.65;3.00;;;;;;;;;;5068292;28;20154;-77
2024/01/13 14:11:36;;;;;;;21.52;2.95;;;;;;;;;;5077606;28;20566;-74
2024/01/13 14:14:03;;;;;;;19.27;2.53;;;;;;;;;;5086971;28;20048;-72
2024/01/13 14:16:29;;;;;;;23.55;2.90;;;;;;;;;;5064400;28;20037;-72
2024/01/13 14:18:56;;;;;;;11.77;2.75;;;;;;;;;;5080018;28;20032;-72
2024/01/13 14:21:23;;;;;;;23.27;3.30;;;;;;;;;;5055896;28;20495;-73
2024/01/13 14:23:49;;;;;;;28.70;3.60;;;;;;;;;;5055171;28;20048;-73
2024/01/13 14:26:15;;;;;;;23.10;2.58;;;;;;;;;;5074240;28;20074;-76
2024/01/13 14:28:41;;;;;;;26.02;3.83;;;;;;;;;;5077292;28;20040;-73